This is the latest recevied weather packets stored in our database for station/object DC0PP-10. If no packets are shown the sender has not sent any weather packets the latest 10 day(s).
| Time | Temp. | Humidity | Pressure | Rain* | Wind** | Luminosity | Snow |
|---|---|---|---|---|---|---|---|
| 1777991149 | 21.11° C | 66% | 1009 hPa | - | - | - | - |
| 1777989349 | 20° C | 70% | 1009.4 hPa | - | - | - | - |
| 1777988448 | 19.44° C | 76% | 1009.5 hPa | - | - | - | - |
| 1777987548 | 18.89° C | 75% | 1009.8 hPa | - | - | - | - |
| 1777986648 | 19.44° C | 74% | 1009.9 hPa | - | - | - | - |
| 1777985750 | 19.44° C | 76% | 1010 hPa | - | - | - | - |
| 1777984848 | 19.44° C | 75% | 1010.1 hPa | - | - | - | - |
| 1777983952 | 18.89° C | 74% | 1010.3 hPa | - | - | - | - |
| 1777983052 | 20° C | 73% | 1010.3 hPa | - | - | - | - |
| 1777982152 | 18.89° C | 74% | 1010.5 hPa | - | - | - | - |
| 1777981252 | 19.44° C | 74% | 1010.6 hPa | - | - | - | - |
| 1777980352 | 19.44° C | 74% | 1010.5 hPa | - | - | - | - |
| 1777979451 | 20° C | 69% | 1010.5 hPa | - | - | - | - |
| 1777978551 | 20.56° C | 66% | 1010.6 hPa | - | - | - | - |
| 1777977651 | 21.11° C | 62% | 1010.5 hPa | - | - | - | - |
| 1777976751 | 21.11° C | 60% | 1010.6 hPa | - | - | - | - |
| 1777975851 | 21.11° C | 62% | 1010.6 hPa | - | - | - | - |
| 1777974951 | 21.11° C | 63% | 1010.8 hPa | - | - | - | - |
| 1777974051 | 22.78° C | 59% | 1010.8 hPa | - | - | - | - |
| 1777973150 | 22.78° C | 60% | 1011 hPa | - | - | - | - |
| 1777972250 | 21.67° C | 64% | 1011.1 hPa | - | - | - | - |
| 1777971350 | 21.11° C | 69% | 1011 hPa | - | - | - | - |
| 1777970449 | 18.89° C | 79% | 1011.1 hPa | - | - | - | - |
| 1777969549 | 17.78° C | 81% | 1011.2 hPa | - | - | - | - |
| 1777968649 | 17.78° C | 80% | 1011.3 hPa | - | - | - | - |
* Rain since midnight (hover to see other rain measurements)
** Current wind speed in m/s (hover to see current wind gust speed)